sensor_id;sensor_type;location;lat;lon;timestamp;temperature;humidity
18506;DHT22;9382;53.242;10.438;2022-07-10T00:01:48;13.10;99.90
18506;DHT22;9382;53.242;10.438;2022-07-10T00:04:15;13.10;99.90
18506;DHT22;9382;53.242;10.438;2022-07-10T00:06:42;13.00;99.90
18506;DHT22;9382;53.242;10.438;2022-07-10T00:09:13;13.00;99.90
18506;DHT22;9382;53.242;10.438;2022-07-10T00:11:40;13.00;99.90
18506;DHT22;9382;53.242;10.438;2022-07-10T00:14:07;12.90;99.90
18506;DHT22;9382;53.242;10.438;2022-07-10T00:16:34;12.90;99.90
18506;DHT22;9382;53.242;10.438;2022-07-10T00:19:01;12.80;99.90
18506;DHT22;9382;53.242;10.438;2022-07-10T00:21:28;12.80;99.90
18506;DHT22;9382;53.242;10.438;2022-07-10T00:23:55;12.70;99.90
18506;DHT22;9382;53.242;10.438;2022-07-10T00:26:23;12.80;99.90
18506;DHT22;9382;53.242;10.438;2022-07-10T00:28:50;12.70;99.90
18506;DHT22;9382;53.242;10.438;2022-07-10T00:31:16;12.60;99.90
18506;DHT22;9382;53.242;10.438;2022-07-10T00:33:43;12.80;99.90
18506;DHT22;9382;53.242;10.438;2022-07-10T00:36:10;12.70;99.90
18506;DHT22;9382;53.242;10.438;2022-07-10T00:38:37;12.80;99.90
18506;DHT22;9382;53.242;10.438;2022-07-10T00:41:04;12.70;99.90
18506;DHT22;9382;53.242;10.438;2022-07-10T00:43:51;12.80;99.90
18506;DHT22;9382;53.242;10.438;2022-07-10T00:46:17;12.70;99.90
18506;DHT22;9382;53.242;10.438;2022-07-10T00:48:45;12.80;99.90
18506;DHT22;9382;53.242;10.438;2022-07-10T00:51:12;12.80;99.90
18506;DHT22;9382;53.242;10.438;2022-07-10T00:53:39;12.70;99.90
18506;DHT22;9382;53.242;10.438;2022-07-10T00:56:06;12.70;99.90
18506;DHT22;9382;53.242;10.438;2022-07-10T00:58:35;12.70;99.90
18506;DHT22;9382;53.242;10.438;2022-07-10T01:01:02;12.80;99.90
18506;DHT22;9382;53.242;10.438;2022-07-10T01:03:29;12.80;99.90
18506;DHT22;9382;53.242;10.438;2022-07-10T01:05:55;12.80;99.90
18506;DHT22;9382;53.242;10.438;2022-07-10T01:08:22;12.80;99.90
18506;DHT22;9382;53.242;10.438;2022-07-10T01:10:49;12.80;99.90
18506;DHT22;9382;53.242;10.438;2022-07-10T01:13:16;12.70;99.90
18506;DHT22;9382;53.242;10.438;2022-07-10T01:15:45;12.70;99.90
18506;DHT22;9382;53.242;10.438;2022-07-10T01:18:12;12.80;99.90
18506;DHT22;9382;53.242;10.438;2022-07-10T01:20:39;12.80;99.90
18506;DHT22;9382;53.242;10.438;2022-07-10T01:23:07;12.80;99.90
18506;DHT22;9382;53.242;10.438;2022-07-10T01:25:34;12.80;99.90
18506;DHT22;9382;53.242;10.438;2022-07-10T01:28:01;12.80;99.90
18506;DHT22;9382;53.242;10.438;2022-07-10T01:30:28;12.80;99.90
18506;DHT22;9382;53.242;10.438;2022-07-10T01:32:55;12.80;99.90
18506;DHT22;9382;53.242;10.438;2022-07-10T01:35:22;12.90;99.90
18506;DHT22;9382;53.242;10.438;2022-07-10T01:37:48;12.80;99.90
18506;DHT22;9382;53.242;10.438;2022-07-10T01:40:16;12.70;99.90
18506;DHT22;9382;53.242;10.438;2022-07-10T01:42:43;12.60;99.90
18506;DHT22;9382;53.242;10.438;2022-07-10T01:45:11;12.70;99.90
18506;DHT22;9382;53.242;10.438;2022-07-10T01:47:38;12.60;99.90
18506;DHT22;9382;53.242;10.438;2022-07-10T01:50:06;12.60;99.90
18506;DHT22;9382;53.242;10.438;2022-07-10T01:52:32;12.50;99.90
18506;DHT22;9382;53.242;10.438;2022-07-10T01:54:59;12.40;99.90
18506;DHT22;9382;53.242;10.438;2022-07-10T01:57:28;12.30;99.90
18506;DHT22;9382;53.242;10.438;2022-07-10T01:59:54;12.30;99.90
18506;DHT22;9382;53.242;10.438;2022-07-10T02:02:21;12.20;99.90
18506;DHT22;9382;53.242;10.438;2022-07-10T02:04:48;12.20;99.90
18506;DHT22;9382;53.242;10.438;2022-07-10T02:07:15;12.20;99.90
18506;DHT22;9382;53.242;10.438;2022-07-10T02:09:43;12.20;99.90
18506;DHT22;9382;53.242;10.438;2022-07-10T02:12:11;12.20;99.90
18506;DHT22;9382;53.242;10.438;2022-07-10T02:14:40;12.10;99.90
18506;DHT22;9382;53.242;10.438;2022-07-10T02:17:07;12.20;99.90
18506;DHT22;9382;53.242;10.438;2022-07-10T02:19:34;12.20;99.90
18506;DHT22;9382;53.242;10.438;2022-07-10T02:22:02;12.20;99.90
18506;DHT22;9382;53.242;10.438;2022-07-10T02:24:28;12.20;99.90
18506;DHT22;9382;53.242;10.438;2022-07-10T02:26:55;12.10;99.90
18506;DHT22;9382;53.242;10.438;2022-07-10T02:29:22;12.20;99.90
18506;DHT22;9382;53.242;10.438;2022-07-10T02:31:51;12.20;99.90
18506;DHT22;9382;53.242;10.438;2022-07-10T02:34:18;12.20;99.90
18506;DHT22;9382;53.242;10.438;2022-07-10T02:36:44;12.20;99.90
18506;DHT22;9382;53.242;10.438;2022-07-10T02:39:11;12.20;99.90
18506;DHT22;9382;53.242;10.438;2022-07-10T02:41:38;12.20;99.90
18506;DHT22;9382;53.242;10.438;2022-07-10T02:44:06;12.20;99.90
18506;DHT22;9382;53.242;10.438;2022-07-10T02:46:33;12.10;99.90
18506;DHT22;9382;53.242;10.438;2022-07-10T02:49:01;12.10;99.90
18506;DHT22;9382;53.242;10.438;2022-07-10T02:51:29;12.10;99.90
18506;DHT22;9382;53.242;10.438;2022-07-10T02:53:56;12.10;99.90
18506;DHT22;9382;53.242;10.438;2022-07-10T02:56:23;12.20;99.90
18506;DHT22;9382;53.242;10.438;2022-07-10T02:58:50;12.20;99.90
18506;DHT22;9382;53.242;10.438;2022-07-10T03:01:17;12.20;99.90
18506;DHT22;9382;53.242;10.438;2022-07-10T03:03:44;12.20;99.90
18506;DHT22;9382;53.242;10.438;2022-07-10T03:06:12;12.20;99.90
18506;DHT22;9382;53.242;10.438;2022-07-10T03:08:38;12.30;99.90
18506;DHT22;9382;53.242;10.438;2022-07-10T03:11:05;12.30;99.90
18506;DHT22;9382;53.242;10.438;2022-07-10T03:13:32;12.40;99.90
18506;DHT22;9382;53.242;10.438;2022-07-10T03:15:58;12.40;99.90
18506;DHT22;9382;53.242;10.438;2022-07-10T03:18:25;12.40;99.90
18506;DHT22;9382;53.242;10.438;2022-07-10T03:20:52;12.50;99.90
18506;DHT22;9382;53.242;10.438;2022-07-10T03:23:20;12.50;99.90
18506;DHT22;9382;53.242;10.438;2022-07-10T03:25:47;12.50;99.90
18506;DHT22;9382;53.242;10.438;2022-07-10T03:28:14;12.50;99.90
18506;DHT22;9382;53.242;10.438;2022-07-10T03:30:40;12.50;99.90
18506;DHT22;9382;53.242;10.438;2022-07-10T03:33:07;12.50;99.90
18506;DHT22;9382;53.242;10.438;2022-07-10T03:35:34;12.50;99.90
18506;DHT22;9382;53.242;10.438;2022-07-10T03:38:00;12.50;99.90
18506;DHT22;9382;53.242;10.438;2022-07-10T03:40:29;12.50;99.90
18506;DHT22;9382;53.242;10.438;2022-07-10T03:42:55;12.50;99.90
18506;DHT22;9382;53.242;10.438;2022-07-10T03:45:22;12.50;99.90
18506;DHT22;9382;53.242;10.438;2022-07-10T03:47:49;12.60;99.90
18506;DHT22;9382;53.242;10.438;2022-07-10T03:50:16;12.60;99.90
18506;DHT22;9382;53.242;10.438;2022-07-10T03:52:42;12.70;99.90
18506;DHT22;9382;53.242;10.438;2022-07-10T03:55:11;12.60;99.90
18506;DHT22;9382;53.242;10.438;2022-07-10T03:57:39;12.70;99.90
18506;DHT22;9382;53.242;10.438;2022-07-10T04:00:23;12.70;99.90
18506;DHT22;9382;53.242;10.438;2022-07-10T04:02:55;12.80;99.90
18506;DHT22;9382;53.242;10.438;2022-07-10T04:05:23;12.80;99.90
18506;DHT22;9382;53.242;10.438;2022-07-10T04:07:49;12.80;99.90
18506;DHT22;9382;53.242;10.438;2022-07-10T04:10:16;12.90;99.90
18506;DHT22;9382;53.242;10.438;2022-07-10T04:12:44;12.90;99.90
18506;DHT22;9382;53.242;10.438;2022-07-10T04:15:11;13.00;99.90
18506;DHT22;9382;53.242;10.438;2022-07-10T04:17:38;13.00;99.90
18506;DHT22;9382;53.242;10.438;2022-07-10T04:20:06;13.00;99.90
18506;DHT22;9382;53.242;10.438;2022-07-10T04:22:33;13.10;99.90
18506;DHT22;9382;53.242;10.438;2022-07-10T04:25:00;13.10;99.90
18506;DHT22;9382;53.242;10.438;2022-07-10T04:27:26;13.10;99.90
18506;DHT22;9382;53.242;10.438;2022-07-10T04:29:55;13.00;99.90
18506;DHT22;9382;53.242;10.438;2022-07-10T04:32:21;13.00;99.90
18506;DHT22;9382;53.242;10.438;2022-07-10T04:34:48;13.00;99.90
18506;DHT22;9382;53.242;10.438;2022-07-10T04:37:15;13.00;99.90
18506;DHT22;9382;53.242;10.438;2022-07-10T04:39:42;13.00;99.90
18506;DHT22;9382;53.242;10.438;2022-07-10T04:42:09;13.00;99.90
18506;DHT22;9382;53.242;10.438;2022-07-10T04:44:36;13.00;99.90
18506;DHT22;9382;53.242;10.438;2022-07-10T04:47:05;12.90;99.90
18506;DHT22;9382;53.242;10.438;2022-07-10T04:49:32;13.00;99.90
18506;DHT22;9382;53.242;10.438;2022-07-10T04:52:00;13.00;99.90
18506;DHT22;9382;53.242;10.438;2022-07-10T04:54:26;13.00;99.90
18506;DHT22;9382;53.242;10.438;2022-07-10T04:56:53;13.00;99.90
18506;DHT22;9382;53.242;10.438;2022-07-10T04:59:20;13.20;99.90
18506;DHT22;9382;53.242;10.438;2022-07-10T05:01:47;13.10;99.90
18506;DHT22;9382;53.242;10.438;2022-07-10T05:04:15;13.10;99.90
18506;DHT22;9382;53.242;10.438;2022-07-10T05:06:41;13.20;99.90
18506;DHT22;9382;53.242;10.438;2022-07-10T05:09:08;13.30;99.90
18506;DHT22;9382;53.242;10.438;2022-07-10T05:11:35;13.30;99.90
18506;DHT22;9382;53.242;10.438;2022-07-10T05:14:01;13.30;99.90
18506;DHT22;9382;53.242;10.438;2022-07-10T05:16:28;13.40;99.90
18506;DHT22;9382;53.242;10.438;2022-07-10T05:18:55;13.50;99.90
18506;DHT22;9382;53.242;10.438;2022-07-10T05:21:23;13.50;99.90
18506;DHT22;9382;53.242;10.438;2022-07-10T05:23:50;13.60;99.90
18506;DHT22;9382;53.242;10.438;2022-07-10T05:26:17;13.60;99.90
18506;DHT22;9382;53.242;10.438;2022-07-10T05:28:44;13.70;99.90
18506;DHT22;9382;53.242;10.438;2022-07-10T05:31:11;13.80;99.90
18506;DHT22;9382;53.242;10.438;2022-07-10T05:33:37;13.90;99.90
18506;DHT22;9382;53.242;10.438;2022-07-10T05:36:06;13.90;99.90
18506;DHT22;9382;53.242;10.438;2022-07-10T05:38:34;14.00;99.90
18506;DHT22;9382;53.242;10.438;2022-07-10T05:41:01;14.10;99.90
18506;DHT22;9382;53.242;10.438;2022-07-10T05:43:28;14.20;99.90
18506;DHT22;9382;53.242;10.438;2022-07-10T05:45:55;14.20;99.90
18506;DHT22;9382;53.242;10.438;2022-07-10T05:48:22;14.20;99.90
18506;DHT22;9382;53.242;10.438;2022-07-10T05:50:48;14.40;99.90
18506;DHT22;9382;53.242;10.438;2022-07-10T05:53:15;14.40;99.90
18506;DHT22;9382;53.242;10.438;2022-07-10T05:55:46;14.50;99.90
18506;DHT22;9382;53.242;10.438;2022-07-10T05:58:13;14.70;99.90
18506;DHT22;9382;53.242;10.438;2022-07-10T06:00:40;14.80;99.90
18506;DHT22;9382;53.242;10.438;2022-07-10T06:03:08;14.70;99.90
18506;DHT22;9382;53.242;10.438;2022-07-10T06:05:35;14.80;99.90
18506;DHT22;9382;53.242;10.438;2022-07-10T06:08:02;14.80;99.90
18506;DHT22;9382;53.242;10.438;2022-07-10T06:10:29;14.70;99.90
18506;DHT22;9382;53.242;10.438;2022-07-10T06:12:57;14.70;99.90
18506;DHT22;9382;53.242;10.438;2022-07-10T06:15:23;14.60;99.90
18506;DHT22;9382;53.242;10.438;2022-07-10T06:17:50;14.70;99.90
18506;DHT22;9382;53.242;10.438;2022-07-10T06:20:17;14.70;99.90
18506;DHT22;9382;53.242;10.438;2022-07-10T06:22:43;14.70;99.90
18506;DHT22;9382;53.242;10.438;2022-07-10T06:25:10;14.80;99.90
18506;DHT22;9382;53.242;10.438;2022-07-10T06:27:37;14.80;99.90
18506;DHT22;9382;53.242;10.438;2022-07-10T06:30:07;14.90;99.90
18506;DHT22;9382;53.242;10.438;2022-07-10T06:32:34;14.90;99.90
18506;DHT22;9382;53.242;10.438;2022-07-10T06:35:00;15.00;99.90
18506;DHT22;9382;53.242;10.438;2022-07-10T06:37:28;15.00;99.90
18506;DHT22;9382;53.242;10.438;2022-07-10T06:39:54;15.20;99.90
18506;DHT22;9382;53.242;10.438;2022-07-10T06:42:21;15.30;99.90
18506;DHT22;9382;53.242;10.438;2022-07-10T06:44:48;15.60;99.90
18506;DHT22;9382;53.242;10.438;2022-07-10T06:47:17;15.70;99.90
18506;DHT22;9382;53.242;10.438;2022-07-10T06:50:02;15.90;99.90
18506;DHT22;9382;53.242;10.438;2022-07-10T06:52:31;16.00;99.90
18506;DHT22;9382;53.242;10.438;2022-07-10T06:54:58;16.20;99.90
18506;DHT22;9382;53.242;10.438;2022-07-10T06:57:25;16.30;99.90
18506;DHT22;9382;53.242;10.438;2022-07-10T06:59:52;16.50;99.90
18506;DHT22;9382;53.242;10.438;2022-07-10T07:02:20;16.60;99.90
18506;DHT22;9382;53.242;10.438;2022-07-10T07:04:47;16.70;99.90
18506;DHT22;9382;53.242;10.438;2022-07-10T07:07:14;16.80;99.90
18506;DHT22;9382;53.242;10.438;2022-07-10T07:09:41;16.90;99.90
18506;DHT22;9382;53.242;10.438;2022-07-10T07:12:09;16.90;99.90
18506;DHT22;9382;53.242;10.438;2022-07-10T07:14:35;17.00;99.90
18506;DHT22;9382;53.242;10.438;2022-07-10T07:17:04;17.00;99.90
18506;DHT22;9382;53.242;10.438;2022-07-10T07:19:33;17.10;99.90
18506;DHT22;9382;53.242;10.438;2022-07-10T07:22:13;17.00;99.90
18506;DHT22;9382;53.242;10.438;2022-07-10T07:24:58;16.90;99.90
18506;DHT22;9382;53.242;10.438;2022-07-10T07:27:24;16.70;99.90
18506;DHT22;9382;53.242;10.438;2022-07-10T07:29:52;16.70;99.90
18506;DHT22;9382;53.242;10.438;2022-07-10T07:32:18;16.90;99.90
18506;DHT22;9382;53.242;10.438;2022-07-10T07:34:47;17.20;99.90
18506;DHT22;9382;53.242;10.438;2022-07-10T07:37:13;17.40;99.90
18506;DHT22;9382;53.242;10.438;2022-07-10T07:39:40;17.70;99.90
18506;DHT22;9382;53.242;10.438;2022-07-10T07:42:07;17.80;99.90
18506;DHT22;9382;53.242;10.438;2022-07-10T07:44:33;17.50;99.90
18506;DHT22;9382;53.242;10.438;2022-07-10T07:47:00;17.50;99.90
18506;DHT22;9382;53.242;10.438;2022-07-10T07:49:27;17.40;99.90
18506;DHT22;9382;53.242;10.438;2022-07-10T07:51:55;17.40;99.90
18506;DHT22;9382;53.242;10.438;2022-07-10T07:54:21;17.30;99.90
18506;DHT22;9382;53.242;10.438;2022-07-10T07:56:48;17.10;99.90
18506;DHT22;9382;53.242;10.438;2022-07-10T07:59:15;17.00;99.90
18506;DHT22;9382;53.242;10.438;2022-07-10T08:01:42;17.00;99.90
18506;DHT22;9382;53.242;10.438;2022-07-10T08:04:09;17.10;99.90
18506;DHT22;9382;53.242;10.438;2022-07-10T08:06:36;17.20;99.90
18506;DHT22;9382;53.242;10.438;2022-07-10T08:09:04;17.20;99.90
18506;DHT22;9382;53.242;10.438;2022-07-10T08:11:31;17.10;99.90
18506;DHT22;9382;53.242;10.438;2022-07-10T08:13:58;17.30;99.90
18506;DHT22;9382;53.242;10.438;2022-07-10T08:16:24;17.40;99.90
18506;DHT22;9382;53.242;10.438;2022-07-10T08:18:51;17.40;99.90
18506;DHT22;9382;53.242;10.438;2022-07-10T08:21:18;17.50;99.90
18506;DHT22;9382;53.242;10.438;2022-07-10T08:23:45;17.80;99.90
18506;DHT22;9382;53.242;10.438;2022-07-10T08:26:13;18.10;99.90
18506;DHT22;9382;53.242;10.438;2022-07-10T08:28:39;18.10;99.90
18506;DHT22;9382;53.242;10.438;2022-07-10T08:31:06;17.90;99.90
18506;DHT22;9382;53.242;10.438;2022-07-10T08:33:33;17.90;99.90
18506;DHT22;9382;53.242;10.438;2022-07-10T08:36:00;18.00;99.90
18506;DHT22;9382;53.242;10.438;2022-07-10T08:38:26;18.10;99.90
18506;DHT22;9382;53.242;10.438;2022-07-10T08:40:54;18.40;99.90
18506;DHT22;9382;53.242;10.438;2022-07-10T08:43:24;18.60;99.90
18506;DHT22;9382;53.242;10.438;2022-07-10T08:45:51;18.80;99.90
18506;DHT22;9382;53.242;10.438;2022-07-10T08:48:21;19.00;99.90
18506;DHT22;9382;53.242;10.438;2022-07-10T08:50:51;19.00;99.90
18506;DHT22;9382;53.242;10.438;2022-07-10T08:53:24;18.90;99.90
18506;DHT22;9382;53.242;10.438;2022-07-10T08:55:53;19.00;99.90
18506;DHT22;9382;53.242;10.438;2022-07-10T08:58:23;19.20;99.90
18506;DHT22;9382;53.242;10.438;2022-07-10T09:00:50;19.70;99.90
18506;DHT22;9382;53.242;10.438;2022-07-10T09:03:16;20.20;99.90
18506;DHT22;9382;53.242;10.438;2022-07-10T09:05:43;20.10;99.90
18506;DHT22;9382;53.242;10.438;2022-07-10T09:08:22;19.40;99.90
18506;DHT22;9382;53.242;10.438;2022-07-10T09:10:49;18.80;99.90
18506;DHT22;9382;53.242;10.438;2022-07-10T09:13:16;18.80;99.90
18506;DHT22;9382;53.242;10.438;2022-07-10T09:15:48;18.80;99.90
18506;DHT22;9382;53.242;10.438;2022-07-10T09:18:19;19.30;99.90
18506;DHT22;9382;53.242;10.438;2022-07-10T09:20:46;20.20;99.90
18506;DHT22;9382;53.242;10.438;2022-07-10T09:23:16;20.90;99.90
18506;DHT22;9382;53.242;10.438;2022-07-10T09:25:44;21.00;99.90
18506;DHT22;9382;53.242;10.438;2022-07-10T09:28:12;20.80;99.90
18506;DHT22;9382;53.242;10.438;2022-07-10T09:30:39;20.60;99.90
18506;DHT22;9382;53.242;10.438;2022-07-10T09:33:22;20.30;99.90
18506;DHT22;9382;53.242;10.438;2022-07-10T09:35:59;20.20;99.90
18506;DHT22;9382;53.242;10.438;2022-07-10T09:38:56;20.30;99.90
18506;DHT22;9382;53.242;10.438;2022-07-10T09:41:27;20.50;99.90
18506;DHT22;9382;53.242;10.438;2022-07-10T09:43:55;20.20;99.90
18506;DHT22;9382;53.242;10.438;2022-07-10T09:46:25;19.90;99.90
18506;DHT22;9382;53.242;10.438;2022-07-10T09:49:04;20.10;99.90
18506;DHT22;9382;53.242;10.438;2022-07-10T09:51:33;20.70;99.90
18506;DHT22;9382;53.242;10.438;2022-07-10T09:54:01;21.30;99.90
18506;DHT22;9382;53.242;10.438;2022-07-10T09:56:32;21.40;99.90
18506;DHT22;9382;53.242;10.438;2022-07-10T09:59:00;20.90;99.90
18506;DHT22;9382;53.242;10.438;2022-07-10T10:01:28;20.80;99.90
18506;DHT22;9382;53.242;10.438;2022-07-10T10:03:58;21.10;99.90
18506;DHT22;9382;53.242;10.438;2022-07-10T10:06:30;21.20;99.90
18506;DHT22;9382;53.242;10.438;2022-07-10T10:09:02;21.50;99.90
18506;DHT22;9382;53.242;10.438;2022-07-10T10:11:32;21.80;99.90
18506;DHT22;9382;53.242;10.438;2022-07-10T10:14:00;21.80;99.90
18506;DHT22;9382;53.242;10.438;2022-07-10T10:16:28;21.90;99.90
18506;DHT22;9382;53.242;10.438;2022-07-10T10:18:55;22.00;99.90
18506;DHT22;9382;53.242;10.438;2022-07-10T10:21:41;21.70;99.90
18506;DHT22;9382;53.242;10.438;2022-07-10T10:24:08;21.00;99.90
18506;DHT22;9382;53.242;10.438;2022-07-10T10:26:35;21.00;99.90
18506;DHT22;9382;53.242;10.438;2022-07-10T10:29:03;21.00;99.90
18506;DHT22;9382;53.242;10.438;2022-07-10T10:31:32;20.90;99.90
18506;DHT22;9382;53.242;10.438;2022-07-10T10:34:00;21.40;99.90
18506;DHT22;9382;53.242;10.438;2022-07-10T10:36:48;22.10;99.90
18506;DHT22;9382;53.242;10.438;2022-07-10T10:39:17;22.50;99.90
18506;DHT22;9382;53.242;10.438;2022-07-10T10:41:51;22.80;99.90
18506;DHT22;9382;53.242;10.438;2022-07-10T10:44:25;22.90;99.90
18506;DHT22;9382;53.242;10.438;2022-07-10T10:46:59;23.20;99.90
18506;DHT22;9382;53.242;10.438;2022-07-10T10:49:53;23.30;99.90
18506;DHT22;9382;53.242;10.438;2022-07-10T10:52:23;23.10;99.90
18506;DHT22;9382;53.242;10.438;2022-07-10T10:55:05;22.90;99.90
18506;DHT22;9382;53.242;10.438;2022-07-10T10:57:39;23.20;99.90
18506;DHT22;9382;53.242;10.438;2022-07-10T11:00:12;23.50;99.90
18506;DHT22;9382;53.242;10.438;2022-07-10T11:02:41;23.40;99.90
18506;DHT22;9382;53.242;10.438;2022-07-10T11:05:40;23.20;99.90
18506;DHT22;9382;53.242;10.438;2022-07-10T11:08:12;23.10;99.90
18506;DHT22;9382;53.242;10.438;2022-07-10T11:10:40;23.30;99.90
18506;DHT22;9382;53.242;10.438;2022-07-10T11:13:08;23.60;99.90
18506;DHT22;9382;53.242;10.438;2022-07-10T11:15:37;23.60;99.90
18506;DHT22;9382;53.242;10.438;2022-07-10T11:18:08;23.60;99.90
18506;DHT22;9382;53.242;10.438;2022-07-10T11:20:36;23.50;99.90
18506;DHT22;9382;53.242;10.438;2022-07-10T11:23:21;23.00;99.90
18506;DHT22;9382;53.242;10.438;2022-07-10T11:25:52;22.60;99.90
18506;DHT22;9382;53.242;10.438;2022-07-10T11:28:32;22.90;99.90
18506;DHT22;9382;53.242;10.438;2022-07-10T11:31:05;23.50;99.90
18506;DHT22;9382;53.242;10.438;2022-07-10T11:33:39;23.60;99.90
18506;DHT22;9382;53.242;10.438;2022-07-10T11:36:10;23.70;99.90
18506;DHT22;9382;53.242;10.438;2022-07-10T11:38:41;23.40;99.90
18506;DHT22;9382;53.242;10.438;2022-07-10T11:41:15;23.40;99.90
18506;DHT22;9382;53.242;10.438;2022-07-10T11:43:49;22.90;99.90
18506;DHT22;9382;53.242;10.438;2022-07-10T11:46:17;23.20;99.90
18506;DHT22;9382;53.242;10.438;2022-07-10T11:48:45;23.80;99.90
18506;DHT22;9382;53.242;10.438;2022-07-10T11:51:23;24.30;99.90
18506;DHT22;9382;53.242;10.438;2022-07-10T11:54:00;24.50;99.90
18506;DHT22;9382;53.242;10.438;2022-07-10T11:56:28;24.20;99.90
18506;DHT22;9382;53.242;10.438;2022-07-10T11:58:56;23.80;99.90
18506;DHT22;9382;53.242;10.438;2022-07-10T12:01:23;23.90;99.90
18506;DHT22;9382;53.242;10.438;2022-07-10T12:03:57;24.20;99.90
18506;DHT22;9382;53.242;10.438;2022-07-10T12:06:25;23.80;99.90
18506;DHT22;9382;53.242;10.438;2022-07-10T12:08:52;23.50;99.90
18506;DHT22;9382;53.242;10.438;2022-07-10T12:11:21;23.20;99.90
18506;DHT22;9382;53.242;10.438;2022-07-10T12:13:49;23.60;99.90
18506;DHT22;9382;53.242;10.438;2022-07-10T12:16:17;24.20;99.90
18506;DHT22;9382;53.242;10.438;2022-07-10T12:18:45;24.80;99.90
18506;DHT22;9382;53.242;10.438;2022-07-10T12:21:13;25.40;99.90
18506;DHT22;9382;53.242;10.438;2022-07-10T12:23:42;25.80;99.90
18506;DHT22;9382;53.242;10.438;2022-07-10T12:26:10;25.00;99.90
18506;DHT22;9382;53.242;10.438;2022-07-10T12:28:53;25.20;99.90
18506;DHT22;9382;53.242;10.438;2022-07-10T12:31:26;25.00;99.90
18506;DHT22;9382;53.242;10.438;2022-07-10T12:33:54;24.40;99.90
18506;DHT22;9382;53.242;10.438;2022-07-10T12:36:24;24.60;99.90
18506;DHT22;9382;53.242;10.438;2022-07-10T12:38:55;24.70;99.90
18506;DHT22;9382;53.242;10.438;2022-07-10T12:41:23;24.70;99.90
18506;DHT22;9382;53.242;10.438;2022-07-10T12:43:52;24.70;99.90
18506;DHT22;9382;53.242;10.438;2022-07-10T12:46:20;24.30;99.90
18506;DHT22;9382;53.242;10.438;2022-07-10T12:49:04;24.60;99.90
18506;DHT22;9382;53.242;10.438;2022-07-10T12:51:33;24.90;99.90
18506;DHT22;9382;53.242;10.438;2022-07-10T12:54:00;25.60;99.90
18506;DHT22;9382;53.242;10.438;2022-07-10T12:56:32;26.50;99.90
18506;DHT22;9382;53.242;10.438;2022-07-10T12:59:02;27.10;99.90
18506;DHT22;9382;53.242;10.438;2022-07-10T13:01:38;25.90;99.90
18506;DHT22;9382;53.242;10.438;2022-07-10T13:04:05;25.10;99.90
18506;DHT22;9382;53.242;10.438;2022-07-10T13:06:34;25.10;99.90
18506;DHT22;9382;53.242;10.438;2022-07-10T13:09:02;25.00;99.90
18506;DHT22;9382;53.242;10.438;2022-07-10T13:11:29;25.50;99.90
18506;DHT22;9382;53.242;10.438;2022-07-10T13:13:56;25.60;99.90
18506;DHT22;9382;53.242;10.438;2022-07-10T13:16:25;26.00;99.90
18506;DHT22;9382;53.242;10.438;2022-07-10T13:18:53;26.70;97.90
18506;DHT22;9382;53.242;10.438;2022-07-10T13:21:20;26.60;99.90
18506;DHT22;9382;53.242;10.438;2022-07-10T13:23:47;27.00;99.90
18506;DHT22;9382;53.242;10.438;2022-07-10T13:26:14;28.00;99.90
18506;DHT22;9382;53.242;10.438;2022-07-10T13:28:41;28.60;97.30
18506;DHT22;9382;53.242;10.438;2022-07-10T13:31:08;28.40;97.10
18506;DHT22;9382;53.242;10.438;2022-07-10T13:33:36;27.40;98.80
18506;DHT22;9382;53.242;10.438;2022-07-10T13:36:03;25.80;95.10
18506;DHT22;9382;53.242;10.438;2022-07-10T13:38:30;24.70;98.50
18506;DHT22;9382;53.242;10.438;2022-07-10T13:40:57;24.20;99.90
18506;DHT22;9382;53.242;10.438;2022-07-10T13:43:24;23.80;99.20
18506;DHT22;9382;53.242;10.438;2022-07-10T13:45:56;23.60;99.90
18506;DHT22;9382;53.242;10.438;2022-07-10T13:48:23;23.30;99.90
18506;DHT22;9382;53.242;10.438;2022-07-10T13:50:52;22.80;99.90
18506;DHT22;9382;53.242;10.438;2022-07-10T13:53:20;23.10;99.90
18506;DHT22;9382;53.242;10.438;2022-07-10T13:55:47;23.60;99.90
18506;DHT22;9382;53.242;10.438;2022-07-10T13:58:14;23.40;99.90
18506;DHT22;9382;53.242;10.438;2022-07-10T14:00:42;23.00;99.90
18506;DHT22;9382;53.242;10.438;2022-07-10T14:03:08;22.70;99.90
18506;DHT22;9382;53.242;10.438;2022-07-10T14:05:35;22.50;99.90
18506;DHT22;9382;53.242;10.438;2022-07-10T14:08:04;22.30;99.90
18506;DHT22;9382;53.242;10.438;2022-07-10T14:10:31;22.10;99.90
18506;DHT22;9382;53.242;10.438;2022-07-10T14:12:58;22.20;99.90
18506;DHT22;9382;53.242;10.438;2022-07-10T14:15:26;22.70;99.90
18506;DHT22;9382;53.242;10.438;2022-07-10T14:17:52;22.90;99.90
18506;DHT22;9382;53.242;10.438;2022-07-10T14:20:20;22.80;99.90
18506;DHT22;9382;53.242;10.438;2022-07-10T14:22:47;22.60;99.90
18506;DHT22;9382;53.242;10.438;2022-07-10T14:25:16;22.30;99.90
18506;DHT22;9382;53.242;10.438;2022-07-10T14:27:43;22.20;99.90
18506;DHT22;9382;53.242;10.438;2022-07-10T14:30:10;22.10;99.90
18506;DHT22;9382;53.242;10.438;2022-07-10T14:32:37;22.40;99.90
18506;DHT22;9382;53.242;10.438;2022-07-10T14:35:04;22.30;99.90
18506;DHT22;9382;53.242;10.438;2022-07-10T14:37:31;22.20;99.90
18506;DHT22;9382;53.242;10.438;2022-07-10T14:39:58;22.00;99.90
18506;DHT22;9382;53.242;10.438;2022-07-10T14:42:26;21.90;99.90
18506;DHT22;9382;53.242;10.438;2022-07-10T14:44:53;21.90;99.90
18506;DHT22;9382;53.242;10.438;2022-07-10T14:47:20;21.90;99.90
18506;DHT22;9382;53.242;10.438;2022-07-10T14:49:46;22.70;99.90
18506;DHT22;9382;53.242;10.438;2022-07-10T14:52:13;22.70;99.90
18506;DHT22;9382;53.242;10.438;2022-07-10T14:54:42;22.50;99.90
18506;DHT22;9382;53.242;10.438;2022-07-10T14:57:08;22.20;99.90
18506;DHT22;9382;53.242;10.438;2022-07-10T14:59:36;22.20;99.90
18506;DHT22;9382;53.242;10.438;2022-07-10T15:02:04;22.30;99.90
18506;DHT22;9382;53.242;10.438;2022-07-10T15:04:30;22.60;99.90
18506;DHT22;9382;53.242;10.438;2022-07-10T15:06:57;22.40;99.90
18506;DHT22;9382;53.242;10.438;2022-07-10T15:09:24;22.80;99.90
18506;DHT22;9382;53.242;10.438;2022-07-10T15:11:50;23.00;99.90
18506;DHT22;9382;53.242;10.438;2022-07-10T15:14:19;22.50;99.90
18506;DHT22;9382;53.242;10.438;2022-07-10T15:16:47;22.10;99.90
18506;DHT22;9382;53.242;10.438;2022-07-10T15:19:14;22.00;99.90
18506;DHT22;9382;53.242;10.438;2022-07-10T15:21:41;22.30;99.90
18506;DHT22;9382;53.242;10.438;2022-07-10T15:24:08;22.70;99.90
18506;DHT22;9382;53.242;10.438;2022-07-10T15:26:34;22.70;99.90
18506;DHT22;9382;53.242;10.438;2022-07-10T15:29:01;22.30;99.90
18506;DHT22;9382;53.242;10.438;2022-07-10T15:31:28;21.80;99.90
18506;DHT22;9382;53.242;10.438;2022-07-10T15:33:56;22.30;99.90
18506;DHT22;9382;53.242;10.438;2022-07-10T15:36:23;22.50;99.90
18506;DHT22;9382;53.242;10.438;2022-07-10T15:38:51;23.00;99.90